Time;durP1;ratioP1;P1;durP2;ratioP2;P2;SDS_P1;SDS_P2;PMS_P1;PMS_P2;Temp;Humidity;BMP_temperature;BMP_pressure;BME280_temperature;BME280_humidity;BME280_pressure;Samples;Min_cycle;Max_cycle;Signal;HPM_P1;HPM_P2
2023/04/23 00:00:40;;;;;;;6.00;4.00;;;19.50;99.90;;;;;;5040710;28;20228;-75
2023/04/23 00:03:13;;;;;;;6.05;4.68;;;19.50;99.90;;;;;;5033960;28;20204;-76
2023/04/23 00:05:46;;;;;;;8.00;4.80;;;19.60;99.90;;;;;;5033270;28;20207;-75
2023/04/23 00:08:19;;;;;;;7.18;4.32;;;19.60;99.90;;;;;;5033112;28;20212;-75
2023/04/23 00:10:52;;;;;;;6.97;4.80;;;19.70;99.90;;;;;;5034545;28;20247;-76
2023/04/23 00:13:24;;;;;;;6.38;4.82;;;19.70;99.90;;;;;;5037428;28;20281;-75
2023/04/23 00:15:57;;;;;;;6.20;4.55;;;19.70;99.90;;;;;;5033642;28;20232;-75
2023/04/23 00:18:29;;;;;;;4.68;4.25;;;19.80;99.90;;;;;;5036324;28;20196;-74
2023/04/23 00:21:01;;;;;;;6.10;3.80;;;19.90;99.90;;;;;;5033628;28;20200;-76
2023/04/23 00:23:32;;;;;;;7.55;4.10;;;20.00;99.90;;;;;;5036366;28;20228;-75
2023/04/23 00:26:03;;;;;;;5.35;3.80;;;20.00;99.90;;;;;;5032527;28;20621;-75
2023/04/23 00:28:34;;;;;;;6.35;3.63;;;20.10;99.90;;;;;;5034655;28;20667;-79
2023/04/23 00:31:08;;;;;;;5.85;3.63;;;20.20;99.90;;;;;;5033713;28;20224;-75
2023/04/23 00:33:39;;;;;;;6.57;4.03;;;20.40;99.90;;;;;;5035284;28;20200;-74
2023/04/23 00:36:11;;;;;;;4.30;3.22;;;20.40;99.90;;;;;;5033671;28;20227;-74
2023/04/23 00:38:42;;;;;;;6.63;3.58;;;20.40;99.90;;;;;;5033243;28;20220;-73
2023/04/23 00:41:13;;;;;;;6.38;3.55;;;20.50;99.90;;;;;;5030999;28;20220;-75
2023/04/23 00:43:44;;;;;;;4.80;3.50;;;20.50;99.90;;;;;;5038652;28;20193;-76
2023/04/23 00:46:17;;;;;;;5.10;3.17;;;20.60;99.90;;;;;;5033843;28;20669;-75
2023/04/23 00:48:51;;;;;;;3.75;3.22;;;20.70;99.90;;;;;;5033723;28;21752;-74
2023/04/23 00:51:23;;;;;;;3.83;2.78;;;20.80;99.90;;;;;;5031269;28;20242;-74
2023/04/23 00:53:54;;;;;;;3.78;2.92;;;21.00;99.90;;;;;;5036041;28;20196;-74
2023/04/23 00:56:26;;;;;;;4.15;2.42;;;21.20;99.90;;;;;;5056210;28;20230;-75
2023/04/23 00:58:58;;;;;;;6.57;2.50;;;21.40;99.90;;;;;;5051272;28;20261;-76
2023/04/23 01:01:32;;;;;;;4.82;2.08;;;21.60;99.90;;;;;;5056345;28;20548;-76
2023/04/23 01:04:03;;;;;;;5.07;2.30;;;21.60;99.90;;;;;;5035821;28;20223;-75
2023/04/23 01:06:34;;;;;;;3.95;2.05;;;21.70;99.90;;;;;;5034510;28;20201;-75
2023/04/23 01:09:05;;;;;;;6.40;2.13;;;21.70;99.90;;;;;;5034474;28;20197;-75
2023/04/23 01:11:38;;;;;;;4.50;1.90;;;21.70;99.90;;;;;;5034494;28;20204;-75
2023/04/23 01:14:09;;;;;;;4.75;1.95;;;21.70;99.90;;;;;;5034739;28;20201;-76
2023/04/23 01:16:42;;;;;;;6.43;1.92;;;21.80;99.90;;;;;;5032091;28;20228;-75
2023/04/23 01:19:14;;;;;;;7.75;2.30;;;21.80;99.90;;;;;;5042213;28;20231;-74
2023/04/23 01:21:46;;;;;;;3.40;1.90;;;21.80;99.90;;;;;;5037990;28;20629;-75
2023/04/23 01:24:19;;;;;;;3.33;2.00;;;21.80;99.90;;;;;;5032346;28;20224;-75
2023/04/23 01:26:50;;;;;;;5.80;2.22;;;21.80;99.90;;;;;;5032470;28;20232;-76
2023/04/23 01:29:21;;;;;;;5.75;2.22;;;21.90;99.90;;;;;;5031152;28;20220;-77
2023/04/23 01:31:54;;;;;;;5.47;2.03;;;21.90;99.90;;;;;;5032860;28;20203;-77
2023/04/23 01:34:29;;;;;;;4.93;2.10;;;22.00;99.90;;;;;;5035102;28;20207;-77
2023/04/23 01:37:01;;;;;;;4.65;2.20;;;22.10;99.90;;;;;;5032118;28;20266;-77
2023/04/23 01:39:35;;;;;;;4.47;2.33;;;22.00;99.90;;;;;;5033186;28;20204;-77
2023/04/23 01:42:08;;;;;;;8.65;2.20;;;22.10;99.90;;;;;;5034658;28;20204;-76
2023/04/23 01:44:39;;;;;;;5.85;2.90;;;22.10;99.90;;;;;;5033964;28;20207;-76
2023/04/23 01:47:13;;;;;;;3.95;1.90;;;22.10;99.90;;;;;;5030445;28;20204;-78
2023/04/23 01:49:44;;;;;;;6.78;1.73;;;22.10;99.90;;;;;;5031980;28;20197;-77
2023/04/23 01:52:15;;;;;;;4.25;1.80;;;22.20;99.90;;;;;;5031187;28;20773;-78
2023/04/23 01:54:49;;;;;;;2.50;1.70;;;22.20;99.90;;;;;;5037226;28;20299;-78
2023/04/23 01:57:23;;;;;;;5.45;2.17;;;22.30;99.90;;;;;;5033410;28;20576;-78
2023/04/23 01:59:54;;;;;;;6.72;2.00;;;22.40;99.90;;;;;;5030339;28;20215;-79
2023/04/23 02:02:25;;;;;;;4.45;1.65;;;22.40;99.90;;;;;;5033069;28;20200;-75
2023/04/23 02:04:57;;;;;;;6.22;1.80;;;22.50;99.90;;;;;;5028903;28;20219;-78
2023/04/23 02:07:28;;;;;;;3.10;1.90;;;22.40;99.90;;;;;;5030429;28;20220;-79
2023/04/23 02:10:01;;;;;;;3.42;1.90;;;22.20;99.90;;;;;;5032614;28;20192;-78
2023/04/23 02:12:34;;;;;;;3.78;1.60;;;22.20;99.90;;;;;;5035159;28;20215;-78
2023/04/23 02:15:06;;;;;;;4.25;2.00;;;22.20;99.90;;;;;;5031995;28;20200;-78
2023/04/23 02:17:38;;;;;;;4.78;2.15;;;22.10;99.90;;;;;;5030909;28;20216;-77
2023/04/23 02:20:10;;;;;;;3.70;1.83;;;22.10;99.90;;;;;;5032692;28;20200;-78
2023/04/23 02:22:42;;;;;;;4.40;1.80;;;22.10;99.90;;;;;;5029220;28;20200;-79
2023/04/23 02:25:16;;;;;;;4.35;2.00;;;22.30;99.90;;;;;;5035097;28;20211;-79
2023/04/23 02:27:47;;;;;;;2.80;1.90;;;22.40;99.90;;;;;;5035391;28;20314;-79
2023/04/23 02:30:19;;;;;;;4.93;2.00;;;22.60;99.90;;;;;;5032203;28;20239;-77
2023/04/23 02:32:52;;;;;;;3.75;1.60;;;22.80;99.90;;;;;;5031701;28;20298;-77
2023/04/23 02:35:24;;;;;;;3.70;1.73;;;23.00;99.90;;;;;;5033697;28;20197;-78
2023/04/23 02:37:55;;;;;;;1.83;1.38;;;23.20;99.90;;;;;;5033450;28;20196;-78
2023/04/23 02:40:29;;;;;;;2.90;1.30;;;23.30;99.90;;;;;;5033743;28;20200;-78
2023/04/23 02:43:00;;;;;;;3.50;1.45;;;23.40;99.90;;;;;;5052032;28;20220;-79
2023/04/23 02:45:32;;;;;;;3.17;1.38;;;23.50;99.90;;;;;;5039427;28;20204;-78
2023/04/23 02:48:03;;;;;;;3.08;1.80;;;23.40;99.90;;;;;;5036644;28;20239;-77
2023/04/23 02:50:37;;;;;;;3.50;1.80;;;23.40;99.90;;;;;;5033461;28;20195;-78
2023/04/23 02:53:09;;;;;;;3.67;1.98;;;23.40;99.90;;;;;;5035405;28;20389;-79
2023/04/23 02:55:42;;;;;;;3.63;1.88;;;23.30;99.90;;;;;;5034846;28;20231;-78
2023/04/23 02:58:13;;;;;;;2.60;1.63;;;23.50;99.90;;;;;;5037152;28;20215;-78
2023/04/23 03:00:44;;;;;;;3.70;1.70;;;23.60;99.90;;;;;;5036512;28;20189;-79
2023/04/23 03:03:15;;;;;;;2.40;1.52;;;23.60;99.90;;;;;;5036703;28;20215;-78
2023/04/23 03:05:47;;;;;;;3.08;1.70;;;23.50;99.90;;;;;;5038804;28;20216;-78
2023/04/23 03:08:18;;;;;;;3.10;1.60;;;23.40;99.90;;;;;;5035283;28;20215;-78
2023/04/23 03:10:51;;;;;;;2.38;1.63;;;23.30;99.90;;;;;;5035423;28;20204;-77
2023/04/23 03:13:22;;;;;;;5.10;1.75;;;23.20;99.90;;;;;;5040800;28;20857;-78
2023/04/23 03:15:55;;;;;;;3.78;1.90;;;23.20;99.90;;;;;;5038446;28;20801;-78
2023/04/23 03:18:26;;;;;;;2.10;1.55;;;23.10;99.90;;;;;;5036664;28;20277;-78
2023/04/23 03:20:57;;;;;;;4.03;1.90;;;22.90;99.90;;;;;;5055249;28;20215;-78
2023/04/23 03:23:28;;;;;;;3.90;1.65;;;22.90;99.90;;;;;;5049764;28;21082;-78
2023/04/23 03:26:01;;;;;;;4.15;2.08;;;22.80;99.90;;;;;;5055358;28;20243;-78
2023/04/23 03:28:33;;;;;;;3.60;1.70;;;22.80;99.90;;;;;;5053333;28;20318;-78
2023/04/23 03:31:04;;;;;;;3.10;1.92;;;22.60;99.90;;;;;;5052305;28;20569;-78
2023/04/23 03:33:35;;;;;;;5.25;1.73;;;22.60;99.90;;;;;;5053335;28;20204;-78
2023/04/23 03:36:06;;;;;;;1.67;1.40;;;22.60;99.90;;;;;;5052338;28;20594;-77
2023/04/23 03:38:37;;;;;;;3.00;2.33;;;22.50;99.90;;;;;;5045760;28;20272;-77
2023/04/23 03:41:10;;;;;;;5.07;1.77;;;22.50;99.90;;;;;;5043236;28;20215;-77
2023/04/23 03:43:41;;;;;;;4.47;1.88;;;22.50;99.90;;;;;;5043541;28;20216;-78
2023/04/23 03:46:12;;;;;;;2.72;1.88;;;22.50;99.90;;;;;;5044363;28;20208;-77
2023/04/23 03:48:43;;;;;;;4.85;2.90;;;22.40;99.90;;;;;;5042462;28;20208;-77
2023/04/23 03:51:14;;;;;;;2.60;1.90;;;22.50;99.90;;;;;;5041815;28;20201;-78
2023/04/23 03:53:47;;;;;;;4.75;2.03;;;22.40;99.90;;;;;;5042873;28;20201;-77
2023/04/23 03:56:20;;;;;;;3.78;1.80;;;22.30;99.90;;;;;;5053415;28;20256;-77
2023/04/23 03:58:51;;;;;;;5.65;2.13;;;22.30;99.90;;;;;;5060168;28;20192;-77
2023/04/23 04:01:22;;;;;;;4.32;2.75;;;22.20;99.90;;;;;;5058781;28;20199;-77
2023/04/23 04:03:53;;;;;;;4.63;2.28;;;22.10;99.90;;;;;;5056024;28;20192;-77
2023/04/23 04:06:26;;;;;;;8.20;2.80;;;22.10;99.90;;;;;;5069708;28;20200;-77
2023/04/23 04:08:57;;;;;;;6.97;3.10;;;22.10;99.90;;;;;;5063479;28;20200;-78
2023/04/23 04:11:30;;;;;;;3.35;2.70;;;22.10;99.90;;;;;;5071673;28;20662;-78
2023/04/23 04:14:01;;;;;;;5.25;2.67;;;22.10;99.90;;;;;;5064731;28;20301;-76
2023/04/23 04:16:32;;;;;;;4.85;2.40;;;22.00;99.90;;;;;;5063403;28;20246;-78
2023/04/23 04:19:04;;;;;;;4.57;2.50;;;22.00;99.90;;;;;;5062898;28;20197;-77
2023/04/23 04:21:35;;;;;;;4.07;2.03;;;22.10;99.90;;;;;;5073123;28;20207;-76
2023/04/23 04:24:06;;;;;;;3.33;2.03;;;22.20;99.90;;;;;;5063523;28;20196;-77
2023/04/23 04:26:40;;;;;;;3.47;2.10;;;22.30;99.90;;;;;;5062794;28;20310;-77
2023/04/23 04:29:12;;;;;;;2.83;1.60;;;22.30;99.90;;;;;;5058682;28;20734;-78
2023/04/23 04:31:43;;;;;;;2.63;1.30;;;22.30;99.90;;;;;;5073092;28;20223;-78
2023/04/23 04:34:14;;;;;;;1.75;1.30;;;22.30;99.90;;;;;;5065814;28;20197;-78
2023/04/23 04:36:46;;;;;;;3.38;1.27;;;22.30;99.90;;;;;;5066323;28;20224;-78
2023/04/23 04:39:17;;;;;;;3.17;1.10;;;22.40;99.90;;;;;;5057497;28;20258;-78
2023/04/23 04:41:51;;;;;;;2.17;1.10;;;22.40;99.90;;;;;;5056408;28;20254;-77
2023/04/23 04:44:22;;;;;;;1.75;1.42;;;22.50;99.90;;;;;;5072359;28;20204;-78
2023/04/23 04:46:53;;;;;;;2.92;1.60;;;22.50;99.90;;;;;;5075532;28;20210;-79
2023/04/23 04:49:24;;;;;;;1.88;1.20;;;22.60;99.90;;;;;;5061970;28;20203;-79
2023/04/23 04:51:55;;;;;;;1.98;1.23;;;22.60;99.90;;;;;;5054083;28;20207;-80
2023/04/23 04:54:26;;;;;;;1.70;1.13;;;22.60;99.90;;;;;;5060842;28;20200;-80
2023/04/23 04:56:59;;;;;;;2.35;1.15;;;22.70;99.90;;;;;;5064797;28;20219;-80
2023/04/23 04:59:30;;;;;;;2.20;1.08;;;22.70;99.90;;;;;;5059055;28;20211;-80
2023/04/23 05:02:01;;;;;;;1.05;0.90;;;22.70;99.90;;;;;;5073221;28;20196;-78
2023/04/23 05:04:33;;;;;;;1.35;1.00;;;22.70;99.90;;;;;;5068099;28;20192;-79
2023/04/23 05:07:04;;;;;;;2.25;1.00;;;22.70;99.90;;;;;;5071020;28;20575;-80
2023/04/23 05:09:36;;;;;;;1.88;1.10;;;22.70;99.90;;;;;;5097876;28;20555;-82
2023/04/23 05:12:09;;;;;;;2.70;1.25;;;22.70;99.90;;;;;;5063714;28;20203;-78
2023/04/23 05:14:42;;;;;;;1.13;1.02;;;22.70;99.90;;;;;;5062291;28;20215;-79
2023/04/23 05:17:13;;;;;;;1.58;1.15;;;22.60;99.90;;;;;;5062998;28;20238;-79
2023/04/23 05:19:44;;;;;;;1.48;1.10;;;22.60;99.90;;;;;;5065775;28;21159;-79
2023/04/23 05:22:17;;;;;;;2.85;1.20;;;22.60;99.90;;;;;;5067497;28;20216;-79
2023/04/23 05:24:48;;;;;;;1.70;1.20;;;22.60;99.90;;;;;;5056701;28;20621;-79
2023/04/23 05:27:22;;;;;;;1.73;1.35;;;22.60;99.90;;;;;;5059092;28;22128;-78
2023/04/23 05:29:54;;;;;;;2.30;1.48;;;22.50;99.90;;;;;;5065204;28;20192;-79
2023/04/23 05:32:25;;;;;;;1.48;1.38;;;22.50;99.90;;;;;;5063279;28;20286;-78
2023/04/23 05:34:57;;;;;;;3.85;1.50;;;22.40;99.90;;;;;;5065631;28;20227;-79
2023/04/23 05:37:28;;;;;;;3.22;1.58;;;22.40;99.90;;;;;;5052646;28;20224;-79
2023/04/23 05:39:59;;;;;;;3.75;1.75;;;22.50;99.90;;;;;;5067456;28;20196;-79
2023/04/23 05:42:32;;;;;;;2.47;1.42;;;22.50;99.90;;;;;;5069199;28;20196;-80
2023/04/23 05:45:03;;;;;;;2.60;1.40;;;22.50;99.90;;;;;;5052949;28;20217;-78
2023/04/23 05:47:34;;;;;;;3.15;1.80;;;22.50;99.90;;;;;;5056253;28;20192;-78
2023/04/23 05:50:05;;;;;;;3.72;1.80;;;22.50;99.90;;;;;;5069643;28;20192;-78
2023/04/23 05:52:36;;;;;;;1.65;1.55;;;22.50;99.90;;;;;;5055800;28;20232;-78
2023/04/23 05:55:08;;;;;;;3.10;1.90;;;22.40;99.90;;;;;;5061686;28;20207;-78
2023/04/23 05:57:41;;;;;;;2.95;1.80;;;22.40;99.90;;;;;;5064579;28;20265;-78
2023/04/23 06:00:13;;;;;;;2.33;1.80;;;22.30;99.90;;;;;;5063526;28;20195;-78
2023/04/23 06:02:44;;;;;;;2.13;1.60;;;22.30;99.90;;;;;;5052669;28;20604;-79
2023/04/23 06:05:15;;;;;;;2.85;1.60;;;22.40;99.90;;;;;;5052262;28;20326;-76
2023/04/23 06:07:48;;;;;;;2.63;1.90;;;22.30;99.90;;;;;;5053994;28;20195;-77
2023/04/23 06:10:19;;;;;;;2.58;1.80;;;22.30;99.90;;;;;;5060880;28;20227;-79
2023/04/23 06:12:54;;;;;;;2.92;2.10;;;22.30;99.90;;;;;;5067675;28;20207;-79
2023/04/23 06:15:25;;;;;;;3.67;2.10;;;22.30;99.90;;;;;;5068843;28;20211;-78
2023/04/23 06:17:57;;;;;;;2.55;1.70;;;22.30;99.90;;;;;;5057856;28;20695;-77
2023/04/23 06:20:28;;;;;;;3.40;1.92;;;22.40;99.90;;;;;;5060580;28;20660;-78
2023/04/23 06:22:59;;;;;;;2.70;1.92;;;22.40;99.90;;;;;;5058784;28;20199;-78
2023/04/23 06:25:30;;;;;;;3.38;1.90;;;22.40;99.90;;;;;;5063723;28;20196;-78
2023/04/23 06:28:03;;;;;;;3.33;2.25;;;22.50;99.90;;;;;;5050407;28;20274;-79
2023/04/23 06:30:34;;;;;;;2.55;2.10;;;22.60;99.90;;;;;;5058122;28;20574;-79
2023/04/23 06:33:05;;;;;;;3.17;2.30;;;22.60;99.90;;;;;;5050601;28;20193;-78
2023/04/23 06:35:36;;;;;;;3.42;2.30;;;22.60;99.90;;;;;;5061318;28;20207;-77
2023/04/23 06:38:07;;;;;;;2.38;2.17;;;22.60;99.90;;;;;;5065803;28;20227;-78
2023/04/23 06:40:38;;;;;;;2.58;2.15;;;22.50;99.90;;;;;;5070713;28;20198;-79
2023/04/23 06:43:13;;;;;;;3.53;2.47;;;22.50;99.90;;;;;;5068260;28;20552;-79
2023/04/23 06:45:44;;;;;;;3.00;2.28;;;22.40;99.90;;;;;;5061444;28;20268;-77
2023/04/23 06:48:15;;;;;;;4.18;2.60;;;22.40;99.90;;;;;;5054276;28;20691;-80
2023/04/23 06:50:46;;;;;;;6.32;3.00;;;22.40;99.90;;;;;;5054854;28;20207;-78
2023/04/23 06:53:17;;;;;;;4.22;3.20;;;22.30;99.90;;;;;;5059374;28;20207;-78
2023/04/23 06:55:50;;;;;;;4.20;3.13;;;22.30;99.90;;;;;;5059171;28;20211;-78
2023/04/23 06:58:26;;;;;;;4.07;3.10;;;22.20;99.90;;;;;;5064616;28;20232;-79
2023/04/23 07:00:58;;;;;;;5.07;3.15;;;22.10;99.90;;;;;;5074346;28;20234;-79
2023/04/23 07:03:29;;;;;;;7.30;3.30;;;22.20;99.90;;;;;;5070062;28;20203;-79
2023/04/23 07:06:03;;;;;;;4.18;3.17;;;22.10;99.90;;;;;;5068999;28;20216;-78
2023/04/23 07:08:34;;;;;;;3.88;3.28;;;22.00;99.90;;;;;;5053105;28;20225;-78
2023/04/23 07:11:05;;;;;;;4.63;3.30;;;22.10;99.90;;;;;;5055015;28;20212;-78
2023/04/23 07:13:38;;;;;;;5.45;3.05;;;22.00;99.90;;;;;;5058366;28;20215;-77
2023/04/23 07:16:10;;;;;;;5.90;3.28;;;22.00;99.90;;;;;;5052690;28;20219;-78
2023/04/23 07:18:41;;;;;;;6.07;3.50;;;22.00;99.90;;;;;;5050267;28;20232;-78
2023/04/23 07:21:12;;;;;;;7.68;3.05;;;22.00;99.90;;;;;;5054607;28;20207;-78
2023/04/23 07:23:43;;;;;;;4.40;3.20;;;21.90;99.90;;;;;;5063151;28;20195;-79
2023/04/23 07:26:15;;;;;;;4.78;3.30;;;21.90;99.90;;;;;;5050560;28;20232;-77
2023/04/23 07:28:49;;;;;;;5.80;3.15;;;21.90;99.90;;;;;;5052813;28;20224;-79
2023/04/23 07:31:21;;;;;;;5.97;3.70;;;21.90;99.90;;;;;;5065369;28;20216;-79
2023/04/23 07:33:52;;;;;;;4.97;3.30;;;21.90;99.90;;;;;;5056357;28;20221;-79
2023/04/23 07:36:25;;;;;;;5.65;3.15;;;21.90;99.90;;;;;;5060188;28;20216;-78
2023/04/23 07:38:56;;;;;;;6.78;3.30;;;21.90;99.90;;;;;;5056165;28;20602;-79
2023/04/23 07:41:27;;;;;;;6.00;3.42;;;21.90;99.90;;;;;;5061333;28;20722;-79
2023/04/23 07:44:00;;;;;;;4.43;3.30;;;21.90;99.90;;;;;;5058102;28;20219;-79
2023/04/23 07:46:31;;;;;;;7.07;3.22;;;21.90;99.90;;;;;;5066388;28;20655;-79
2023/04/23 07:49:02;;;;;;;5.00;3.30;;;21.90;99.90;;;;;;5052284;28;20861;-79
2023/04/23 07:51:34;;;;;;;5.25;3.03;;;21.90;99.90;;;;;;5063052;28;20666;-78
2023/04/23 07:54:08;;;;;;;4.75;3.20;;;21.90;99.90;;;;;;5055952;28;20303;-79
2023/04/23 07:56:39;;;;;;;4.18;2.90;;;21.90;99.90;;;;;;5055307;28;20670;-78
2023/04/23 07:59:12;;;;;;;4.93;3.08;;;21.80;99.90;;;;;;5065137;28;20228;-78
2023/04/23 08:01:43;;;;;;;4.50;3.10;;;21.80;99.90;;;;;;5063634;28;20212;-78
2023/04/23 08:04:14;;;;;;;5.43;3.60;;;21.80;99.90;;;;;;5060025;28;20582;-78
2023/04/23 08:06:45;;;;;;;6.65;4.38;;;21.80;99.90;;;;;;5064104;28;20224;-78
2023/04/23 08:09:16;;;;;;;4.97;3.45;;;21.80;99.90;;;;;;5067278;28;20188;-78
2023/04/23 08:11:48;;;;;;;5.20;3.85;;;21.80;99.90;;;;;;5060422;28;20983;-78
2023/04/23 08:14:21;;;;;;;5.90;3.90;;;21.80;99.90;;;;;;5052192;28;20625;-79
2023/04/23 08:16:52;;;;;;;5.70;3.70;;;21.80;99.90;;;;;;5062165;28;20204;-78
2023/04/23 08:19:23;;;;;;;7.28;3.10;;;21.80;99.90;;;;;;5059319;28;20620;-78
2023/04/23 08:21:55;;;;;;;5.97;3.10;;;21.80;99.90;;;;;;5064345;28;20231;-78
2023/04/23 08:24:27;;;;;;;4.93;3.20;;;21.80;99.90;;;;;;5064146;28;20242;-77
2023/04/23 08:26:58;;;;;;;4.22;2.97;;;21.80;99.90;;;;;;5055824;28;20236;-78
2023/04/23 08:29:31;;;;;;;4.60;3.00;;;21.80;99.90;;;;;;5071515;28;20224;-78
2023/04/23 08:32:02;;;;;;;4.32;3.22;;;21.80;99.90;;;;;;5053750;28;20216;-77
2023/04/23 08:34:33;;;;;;;6.70;3.53;;;21.80;99.90;;;;;;5053717;28;20216;-78
2023/04/23 08:37:04;;;;;;;5.72;3.10;;;21.80;99.90;;;;;;5060281;28;20637;-77
2023/04/23 08:39:36;;;;;;;5.63;3.13;;;21.80;99.90;;;;;;5065919;28;20608;-77
2023/04/23 08:42:12;;;;;;;7.05;3.00;;;21.80;99.90;;;;;;5054825;28;20224;-77
2023/04/23 08:44:48;;;;;;;5.30;3.15;;;21.80;99.90;;;;;;5059944;28;20212;-78
2023/04/23 08:47:21;;;;;;;4.63;2.83;;;21.70;99.90;;;;;;5054366;28;20228;-78
2023/04/23 08:49:56;;;;;;;5.90;3.38;;;21.80;99.90;;;;;;5058940;28;20203;-77
2023/04/23 08:52:28;;;;;;;4.57;3.10;;;21.70;99.90;;;;;;5057145;28;20215;-77
2023/04/23 08:55:03;;;;;;;6.55;3.05;;;21.70;99.90;;;;;;5060345;28;20200;-78
2023/04/23 08:57:35;;;;;;;7.72;3.17;;;21.80;99.90;;;;;;5065322;28;20219;-78
2023/04/23 09:00:10;;;;;;;6.25;2.97;;;21.70;99.90;;;;;;5053543;28;20216;-78
2023/04/23 09:02:44;;;;;;;3.30;2.80;;;21.70;99.90;;;;;;5050523;28;20212;-78
2023/04/23 09:05:16;;;;;;;3.20;2.65;;;21.70;99.90;;;;;;5061179;28;20196;-78
2023/04/23 09:07:47;;;;;;;5.43;2.80;;;21.70;99.90;;;;;;5051844;28;20200;-78
2023/04/23 09:10:18;;;;;;;5.07;2.83;;;21.70;99.90;;;;;;5058251;28;20188;-77
2023/04/23 09:12:49;;;;;;;5.55;2.90;;;21.70;99.90;;;;;;5060767;28;20207;-77
2023/04/23 09:15:23;;;;;;;4.47;2.85;;;21.70;99.90;;;;;;5058841;28;20196;-77
2023/04/23 09:17:54;;;;;;;4.03;2.90;;;21.70;99.90;;;;;;5066999;28;20666;-78
2023/04/23 09:20:25;;;;;;;7.63;3.22;;;21.60;99.90;;;;;;5056380;28;20192;-77
2023/04/23 09:22:56;;;;;;;5.40;3.17;;;21.60;99.90;;;;;;5064132;28;20276;-77
2023/04/23 09:25:27;;;;;;;4.63;2.83;;;21.60;99.90;;;;;;5061332;28;20220;-78
2023/04/23 09:28:02;;;;;;;6.20;3.13;;;21.60;99.90;;;;;;5057018;28;20286;-78
2023/04/23 09:30:40;;;;;;;4.20;2.90;;;21.60;99.90;;;;;;5066058;28;20204;-78
2023/04/23 09:33:14;;;;;;;4.10;3.05;;;21.70;99.90;;;;;;5053756;28;20199;-77
2023/04/23 09:35:46;;;;;;;5.28;3.28;;;21.70;99.90;;;;;;5057492;28;20192;-77
2023/04/23 09:38:17;;;;;;;7.43;3.47;;;21.70;99.90;;;;;;5067554;28;20753;-78
2023/04/23 09:40:48;;;;;;;6.43;3.70;;;21.70;99.90;;;;;;5058421;28;20583;-77
2023/04/23 09:43:20;;;;;;;4.80;3.10;;;21.70;99.90;;;;;;5057586;28;20200;-77
2023/04/23 09:45:56;;;;;;;5.70;3.10;;;21.70;99.90;;;;;;5067606;28;20207;-78
2023/04/23 09:48:41;;;;;;;6.60;3.75;;;21.80;99.90;;;;;;5064239;28;20674;-77
2023/04/23 09:51:16;;;;;;;4.47;3.25;;;21.70;99.90;;;;;;5063385;28;20191;-78
2023/04/23 09:53:47;;;;;;;4.25;3.25;;;21.70;99.90;;;;;;5069671;28;20185;-77
2023/04/23 09:56:21;;;;;;;4.38;3.20;;;21.70;99.90;;;;;;5088308;28;20194;-76
2023/04/23 09:58:53;;;;;;;5.28;3.53;;;21.70;99.90;;;;;;5076111;28;20247;-79
2023/04/23 10:01:31;;;;;;;7.07;3.97;;;21.70;99.90;;;;;;5067848;28;20792;-78
2023/04/23 10:04:02;;;;;;;6.05;3.97;;;21.70;99.90;;;;;;5070533;28;20200;-78
2023/04/23 10:06:33;;;;;;;4.75;3.78;;;21.70;99.90;;;;;;5071040;28;20203;-78
2023/04/23 10:09:04;;;;;;;7.95;4.65;;;21.70;99.90;;;;;;5063734;28;20670;-78
2023/04/23 10:11:37;;;;;;;7.20;4.00;;;21.80;99.90;;;;;;5056575;28;20568;-78
2023/04/23 10:14:09;;;;;;;7.35;4.35;;;21.80;99.90;;;;;;5059248;28;20575;-78
2023/04/23 10:16:43;;;;;;;7.72;3.78;;;21.70;99.90;;;;;;5058335;28;20309;-77
2023/04/23 10:19:19;;;;;;;7.30;4.40;;;21.60;99.90;;;;;;5059286;28;20243;-78
2023/04/23 10:21:51;;;;;;;9.23;4.20;;;21.60;99.90;;;;;;5062992;28;20203;-78
2023/04/23 10:24:27;;;;;;;7.28;4.15;;;21.50;99.90;;;;;;5066683;28;20220;-76
2023/04/23 10:27:01;;;;;;;7.07;4.05;;;21.40;99.90;;;;;;5058390;28;20228;-77
2023/04/23 10:29:33;;;;;;;7.60;3.65;;;21.40;99.90;;;;;;5064880;28;20670;-77
2023/04/23 10:32:07;;;;;;;7.72;3.88;;;21.40;99.90;;;;;;5063957;28;20192;-77
2023/04/23 10:34:39;;;;;;;8.80;3.60;;;21.40;99.90;;;;;;5064888;28;20256;-77
2023/04/23 10:37:10;;;;;;;5.10;3.35;;;21.30;99.90;;;;;;5067677;28;20189;-77
2023/04/23 10:39:47;;;;;;;8.10;3.28;;;21.30;99.90;;;;;;5067166;28;20224;-77
2023/04/23 10:42:19;;;;;;;7.90;3.53;;;21.30;99.90;;;;;;5053859;28;20201;-78
2023/04/23 10:44:50;;;;;;;7.00;3.63;;;21.20;99.90;;;;;;5071073;28;20196;-79
2023/04/23 10:47:23;;;;;;;7.63;3.33;;;21.20;99.90;;;;;;5071468;28;20196;-77
2023/04/23 10:49:55;;;;;;;5.50;3.13;;;21.20;99.90;;;;;;5060872;28;20207;-77
2023/04/23 10:52:26;;;;;;;6.47;3.17;;;21.20;99.90;;;;;;5060984;28;20655;-78
2023/04/23 10:55:01;;;;;;;7.03;3.17;;;21.20;99.90;;;;;;5063608;28;20671;-78
2023/04/23 10:57:32;;;;;;;6.03;3.05;;;21.20;99.90;;;;;;5063545;28;20202;-78
2023/04/23 11:00:05;;;;;;;8.80;2.72;;;21.20;99.90;;;;;;5054044;28;20228;-78
2023/04/23 11:02:48;;;;;;;6.57;2.72;;;21.20;99.90;;;;;;5070433;28;20990;-78
2023/04/23 11:05:19;;;;;;;8.27;2.83;;;21.20;99.90;;;;;;5069981;28;20199;-77
2023/04/23 11:08:07;;;;;;;5.47;2.67;;;21.20;99.90;;;;;;5061235;28;20196;-77
2023/04/23 11:10:57;;;;;;;7.70;2.72;;;21.30;99.90;;;;;;5052577;28;20207;-77
2023/04/23 11:13:28;;;;;;;8.15;2.92;;;21.30;99.90;;;;;;5053960;28;20200;-77
2023/04/23 11:16:20;;;;;;;6.50;2.70;;;21.30;99.90;;;;;;5062281;28;20200;-77
2023/04/23 11:19:05;;;;;;;4.57;2.33;;;21.30;99.90;;;;;;5052197;28;20491;-77
2023/04/23 11:22:03;;;;;;;7.35;2.72;;;21.30;99.90;;;;;;5055702;28;20224;-75
2023/04/23 11:24:36;;;;;;;8.25;2.85;;;21.30;99.90;;;;;;5059561;28;20697;-79
2023/04/23 11:27:09;;;;;;;6.47;2.47;;;21.30;99.90;;;;;;5060586;28;20319;-77
2023/04/23 11:29:42;;;;;;;8.93;2.45;;;21.30;99.90;;;;;;5065917;28;20195;-79
2023/04/23 11:32:14;;;;;;;4.65;2.22;;;21.30;99.90;;;;;;5064000;28;20583;-78
2023/04/23 11:34:49;;;;;;;7.40;2.92;;;21.30;99.90;;;;;;5056972;28;20200;-78
2023/04/23 11:37:20;;;;;;;7.03;2.47;;;21.30;99.90;;;;;;5062027;28;20199;-78
2023/04/23 11:39:52;;;;;;;6.80;2.63;;;21.30;99.90;;;;;;5063396;28;20223;-76
2023/04/23 11:42:23;;;;;;;6.75;2.80;;;21.30;99.90;;;;;;5056224;28;20209;-78
2023/04/23 11:44:57;;;;;;;6.65;2.58;;;21.30;99.90;;;;;;5069512;28;20484;-78
2023/04/23 11:47:29;;;;;;;8.25;2.58;;;21.30;99.90;;;;;;5058841;28;20602;-77
2023/04/23 11:50:05;;;;;;;5.20;2.50;;;21.30;99.90;;;;;;5059109;28;20219;-78
2023/04/23 11:52:36;;;;;;;5.60;2.25;;;21.30;99.90;;;;;;5053491;28;20192;-77
2023/04/23 11:55:08;;;;;;;7.22;2.70;;;21.30;99.90;;;;;;5065061;28;20579;-77
2023/04/23 11:57:43;;;;;;;5.43;2.17;;;21.20;99.90;;;;;;5064621;28;20200;-76
2023/04/23 12:00:19;;;;;;;8.55;2.53;;;21.20;99.90;;;;;;5054927;28;20764;-77
2023/04/23 12:02:57;;;;;;;5.65;2.10;;;21.20;99.90;;;;;;5053694;28;20203;-77
2023/04/23 12:05:35;;;;;;;6.40;2.22;;;21.20;99.90;;;;;;5065005;28;20694;-77
2023/04/23 12:08:13;;;;;;;6.18;2.20;;;21.20;99.90;;;;;;5071344;28;22200;-77
2023/04/23 12:10:50;;;;;;;4.65;2.35;;;21.20;99.90;;;;;;5061445;28;20192;-76
2023/04/23 12:13:23;;;;;;;6.65;2.25;;;21.20;99.90;;;;;;5055070;28;20602;-77
2023/04/23 12:15:56;;;;;;;8.15;2.55;;;21.20;99.90;;;;;;5056579;28;20224;-76
2023/04/23 12:18:31;;;;;;;7.60;2.30;;;21.20;99.90;;;;;;5067343;28;20234;-77
2023/04/23 12:21:11;;;;;;;5.28;2.45;;;21.10;99.90;;;;;;5055340;28;20220;-75
2023/04/23 12:23:43;;;;;;;4.18;1.98;;;21.10;99.90;;;;;;5058532;28;20220;-77
2023/04/23 12:26:15;;;;;;;7.40;1.95;;;21.10;99.90;;;;;;5066401;28;20228;-76
2023/04/23 12:28:57;;;;;;;6.50;2.03;;;21.10;99.90;;;;;;5060160;28;20216;-77
2023/04/23 12:31:30;;;;;;;5.40;2.00;;;21.10;99.90;;;;;;5060916;28;20197;-77
2023/04/23 12:34:05;;;;;;;5.28;2.38;;;21.20;99.90;;;;;;5063768;28;20200;-76
2023/04/23 12:36:41;;;;;;;7.47;1.98;;;21.20;99.90;;;;;;5059145;28;20196;-76
2023/04/23 12:39:28;;;;;;;8.75;2.35;;;21.20;99.90;;;;;;5055047;28;20717;-76
2023/04/23 12:42:01;;;;;;;6.80;2.08;;;21.20;99.90;;;;;;5066132;28;20588;-77
2023/04/23 12:44:33;;;;;;;3.83;1.98;;;21.20;99.90;;;;;;5062021;28;20231;-77
2023/04/23 12:47:06;;;;;;;3.42;1.80;;;21.20;99.90;;;;;;5056285;28;20196;-77
2023/04/23 12:49:37;;;;;;;5.25;1.95;;;21.20;99.90;;;;;;5057580;28;20682;-76
2023/04/23 12:52:12;;;;;;;5.78;1.88;;;21.30;99.90;;;;;;5064042;28;20200;-77
2023/04/23 12:54:43;;;;;;;6.63;2.00;;;21.20;99.90;;;;;;5055474;28;20196;-78
2023/04/23 12:57:15;;;;;;;4.97;2.00;;;21.30;99.90;;;;;;5056490;28;20196;-85
2023/04/23 12:59:46;;;;;;;5.45;2.10;;;21.30;99.90;;;;;;5053457;28;20683;-77
2023/04/23 13:02:17;;;;;;;4.00;1.90;;;21.20;99.90;;;;;;5059579;28;20675;-77
2023/04/23 13:04:48;;;;;;;6.53;1.77;;;21.20;99.90;;;;;;5054583;28;20573;-77
2023/04/23 13:07:21;;;;;;;4.35;1.60;;;21.20;99.90;;;;;;5057158;28;20215;-78
2023/04/23 13:09:52;;;;;;;5.13;1.85;;;21.20;99.90;;;;;;5062080;28;20212;-77
2023/04/23 13:12:24;;;;;;;4.30;1.85;;;21.20;99.90;;;;;;5064617;28;21092;-77
2023/04/23 13:14:55;;;;;;;3.92;1.85;;;21.20;99.90;;;;;;5058966;28;20541;-77